Warning: Javascript must be enabled to use all the features on this page!


Page Loading - Please Wait...

Click to hideNews Bulletins
  • Have your voice heard. Have a few minutes? We're surveying users about their experience with Water Data for the Nation (WDFN). Please take a few minutes to complete our online survey.
  • See the Water Data for the Nation Blog for the latest news and updates.

Peak Streamflow for the Nation

USGS 01547950 Beech Creek at Monument, PA

Centre County, Pennsylvania
Hydrologic Unit Code 02050204
Latitude  41°06'42", Longitude  77°42'09" NAD27
Drainage area 152  square miles
Gage datum 741.60 feet above NGVD29
Output formats
Table
Graph
Tab-separated file
peakfq (watstore) format
Reselect output format
Water
Year
Date Gage
Height
(feet)
Stream-
flow
(cfs)
1968 1968-09-10 7.22 370
1969 1968-11-18 8.68 1,250
1970 1970-04-02 10.24 3,070
1971 1971-02-28 9.42 2,030
1972 1972-06-23 15.22 9,740
1973 1973-02-03 8.36 1,530
1974 1974-04-04 9.10 2,240
1975 1975-09-26 12.63 6,140
1976 1976-02-18 8.99 2,130
1977 1977-04-03 9.86 3,000
1978 1977-11-08 9.49 2,500
1979 1979-03-06 11.12 4,370
1980 1979-10-06 9.43 2,430
1981 1981-02-23 10.46 3,640
1982 1982-03-26 9.59 2,640
1983 1983-06-28 9.59 2,640
1984 1984-02-14 13.31 7,210
1985 1985-04-01 8.41 1,510
1986 1986-03-15 9.84 2,910
1987 1986-11-27 9.00 2,040
1988 1988-05-19 9.40 2,320
1989 1989-06-21 9.56 2,560
1990 1990-07-16 8.79 1,850
1991 1991-03-04 9.26 2,280
1992 1992-04-01 7.52 839
1993 1993-04-01 10.81 3,840
1994 1993-11-28 11.62 4,780
1995 1995-01-20 8.53 1,670
1996 1996-01-19 11.74 4,810
1997 1996-11-08 10.26 3,190
1998 1998-01-08 8.98 2,020
1999 1999-03-04 8.032 1,270
2000 2000-04-23 7.75 1,060
2001 2001-03-22 7.75 1,060
2002 2002-05-13 9.26 2,250
2003 2003-03-21 9.22 2,220
2004 2004-09-18 12.96 6,310
2005 2005-01-14 8.91 1,970
2006 2005-11-30 10.08 2,980
2007 2006-11-16 8.31 1,660
2008 2008-03-08 8.91 1,970
2009 2009-02-12 7.71 1,040
2010 2010-01-25 9.88 2,800
2011 2010-12-01 12.10 5,200
2012 2012-05-03 8.81 1,890
2013 2013-01-31 8.96 2,010
2014 2014-05-16 8.75 1,850
2015 2015-04-10 8.27 1,470
2016 2016-01-10 7.39 863
2017 2017-05-31 9.71 2,890
2018 2018-09-11 12.71 6,510
2019 2019-02-08 8.79 2,110
2020 2020-04-30 8.89 2,210
2021 2021-09-23 9.60 2,950
?
  Peak Gage-Height Qualification Codes.